Terminal Aerodrome Forecast
Issued by NWS Grand Forks, ND

Home | Current Version | Previous Version | Text Only | Print | Product List | Glossary On
Versions: 1 2 3 4 5 6 7 8 9 10 11 12 13 14 15 16 17 18 19
000
FTUS43 KFGF 281131 AAA
TAFFAR
TAF AMD
KFAR 281131Z 2812/2912 30009KT P6SM SCT090
     FM281400 31012KT P6SM BKN090
     FM281700 32020G28KT P6SM VCSH BKN070
     FM282100 32023G32KT P6SM BKN060
     FM290100 33017KT P6SM BKN080
     FM290700 32012KT P6SM OVC025=

USA.gov is the U.S. government's official web portal to all federal, state and local government web resources and services.